sensor_id;sensor_type;location;lat;lon;timestamp;temperature;humidity
56172;DHT22;42052;41.634;-0.946;2023-03-03T00:01:48;19.60;33.90
56172;DHT22;42052;41.634;-0.946;2023-03-03T00:04:34;19.50;33.80
56172;DHT22;42052;41.634;-0.946;2023-03-03T00:07:20;19.50;33.80
56172;DHT22;42052;41.634;-0.946;2023-03-03T00:10:08;19.50;33.90
56172;DHT22;42052;41.634;-0.946;2023-03-03T00:12:54;19.40;34.00
56172;DHT22;42052;41.634;-0.946;2023-03-03T00:15:40;19.30;34.20
56172;DHT22;42052;41.634;-0.946;2023-03-03T00:18:36;19.30;34.00
56172;DHT22;42052;41.634;-0.946;2023-03-03T00:21:42;19.30;34.20
56172;DHT22;42052;41.634;-0.946;2023-03-03T00:24:36;19.40;34.30
56172;DHT22;42052;41.634;-0.946;2023-03-03T00:27:29;19.30;34.50
56172;DHT22;42052;41.634;-0.946;2023-03-03T00:30:26;19.30;34.60
56172;DHT22;42052;41.634;-0.946;2023-03-03T00:33:33;19.30;34.90
56172;DHT22;42052;41.634;-0.946;2023-03-03T00:36:36;19.20;34.90
56172;DHT22;42052;41.634;-0.946;2023-03-03T00:42:17;19.20;34.80
56172;DHT22;42052;41.634;-0.946;2023-03-03T00:45:29;19.20;34.90
56172;DHT22;42052;41.634;-0.946;2023-03-03T00:51:30;19.20;35.80
56172;DHT22;42052;41.634;-0.946;2023-03-03T00:54:16;19.10;34.90
56172;DHT22;42052;41.634;-0.946;2023-03-03T00:57:02;19.10;34.80
56172;DHT22;42052;41.634;-0.946;2023-03-03T00:59:48;19.10;34.90
56172;DHT22;42052;41.634;-0.946;2023-03-03T01:02:34;19.10;35.50
56172;DHT22;42052;41.634;-0.946;2023-03-03T01:05:20;19.10;34.70
56172;DHT22;42052;41.634;-0.946;2023-03-03T01:08:07;19.10;34.80
56172;DHT22;42052;41.634;-0.946;2023-03-03T01:11:04;19.10;34.60
56172;DHT22;42052;41.634;-0.946;2023-03-03T01:13:53;19.10;34.70
56172;DHT22;42052;41.634;-0.946;2023-03-03T01:16:39;19.10;34.50
56172;DHT22;42052;41.634;-0.946;2023-03-03T01:19:26;19.10;34.60
56172;DHT22;42052;41.634;-0.946;2023-03-03T01:22:12;19.10;34.70
56172;DHT22;42052;41.634;-0.946;2023-03-03T01:24:58;19.00;34.70
56172;DHT22;42052;41.634;-0.946;2023-03-03T01:27:44;19.10;34.80
56172;DHT22;42052;41.634;-0.946;2023-03-03T01:30:31;19.00;34.70
56172;DHT22;42052;41.634;-0.946;2023-03-03T01:33:17;19.00;34.90
56172;DHT22;42052;41.634;-0.946;2023-03-03T01:36:03;19.00;34.70
56172;DHT22;42052;41.634;-0.946;2023-03-03T01:38:50;19.00;34.70
56172;DHT22;42052;41.634;-0.946;2023-03-03T01:41:36;19.00;35.60
56172;DHT22;42052;41.634;-0.946;2023-03-03T01:44:22;19.00;34.70
56172;DHT22;42052;41.634;-0.946;2023-03-03T01:47:21;19.00;34.90
56172;DHT22;42052;41.634;-0.946;2023-03-03T01:50:26;19.00;34.90
56172;DHT22;42052;41.634;-0.946;2023-03-03T01:53:21;18.90;35.00
56172;DHT22;42052;41.634;-0.946;2023-03-03T01:56:09;18.90;34.90
56172;DHT22;42052;41.634;-0.946;2023-03-03T01:59:06;18.90;34.90
56172;DHT22;42052;41.634;-0.946;2023-03-03T02:01:55;18.90;34.90
56172;DHT22;42052;41.634;-0.946;2023-03-03T02:04:41;18.90;34.90
56172;DHT22;42052;41.634;-0.946;2023-03-03T02:07:28;18.90;35.00
56172;DHT22;42052;41.634;-0.946;2023-03-03T02:10:17;18.90;35.00
56172;DHT22;42052;41.634;-0.946;2023-03-03T02:13:04;18.90;35.30
56172;DHT22;42052;41.634;-0.946;2023-03-03T02:15:50;18.90;35.50
56172;DHT22;42052;41.634;-0.946;2023-03-03T02:18:36;19.00;35.50
56172;DHT22;42052;41.634;-0.946;2023-03-03T02:21:23;19.00;35.40
56172;DHT22;42052;41.634;-0.946;2023-03-03T02:24:25;19.10;35.40
56172;DHT22;42052;41.634;-0.946;2023-03-03T02:27:12;19.10;35.30
56172;DHT22;42052;41.634;-0.946;2023-03-03T02:30:09;19.10;35.30
56172;DHT22;42052;41.634;-0.946;2023-03-03T02:32:55;19.20;35.20
56172;DHT22;42052;41.634;-0.946;2023-03-03T02:35:41;19.20;35.20
56172;DHT22;42052;41.634;-0.946;2023-03-03T02:38:42;19.20;35.10
56172;DHT22;42052;41.634;-0.946;2023-03-03T02:44:42;19.20;35.10
56172;DHT22;42052;41.634;-0.946;2023-03-03T02:47:28;19.20;35.00
56172;DHT22;42052;41.634;-0.946;2023-03-03T02:50:14;19.30;35.10
56172;DHT22;42052;41.634;-0.946;2023-03-03T02:53:00;19.30;35.20
56172;DHT22;42052;41.634;-0.946;2023-03-03T02:55:46;19.30;35.20
56172;DHT22;42052;41.634;-0.946;2023-03-03T02:58:32;19.30;35.30
56172;DHT22;42052;41.634;-0.946;2023-03-03T03:01:19;19.30;35.40
56172;DHT22;42052;41.634;-0.946;2023-03-03T03:04:14;19.20;35.40
56172;DHT22;42052;41.634;-0.946;2023-03-03T03:07:00;19.30;35.40
56172;DHT22;42052;41.634;-0.946;2023-03-03T03:09:47;19.30;35.40
56172;DHT22;42052;41.634;-0.946;2023-03-03T03:12:34;19.30;35.30
56172;DHT22;42052;41.634;-0.946;2023-03-03T03:15:20;19.30;35.30
56172;DHT22;42052;41.634;-0.946;2023-03-03T03:18:06;19.30;35.20
56172;DHT22;42052;41.634;-0.946;2023-03-03T03:20:52;19.30;35.30
56172;DHT22;42052;41.634;-0.946;2023-03-03T03:23:39;19.30;35.30
56172;DHT22;42052;41.634;-0.946;2023-03-03T03:26:25;19.30;35.20
56172;DHT22;42052;41.634;-0.946;2023-03-03T03:29:11;19.30;35.20
56172;DHT22;42052;41.634;-0.946;2023-03-03T03:31:57;19.30;35.10
56172;DHT22;42052;41.634;-0.946;2023-03-03T03:34:44;19.40;35.20
56172;DHT22;42052;41.634;-0.946;2023-03-03T03:37:30;19.30;36.00
56172;DHT22;42052;41.634;-0.946;2023-03-03T03:40:16;19.40;35.20
56172;DHT22;42052;41.634;-0.946;2023-03-03T03:43:02;19.40;35.20
56172;DHT22;42052;41.634;-0.946;2023-03-03T03:45:48;19.40;35.20
56172;DHT22;42052;41.634;-0.946;2023-03-03T03:48:34;19.40;35.20
56172;DHT22;42052;41.634;-0.946;2023-03-03T03:51:20;19.40;35.10
56172;DHT22;42052;41.634;-0.946;2023-03-03T03:54:07;19.40;35.10
56172;DHT22;42052;41.634;-0.946;2023-03-03T03:56:53;19.40;35.00
56172;DHT22;42052;41.634;-0.946;2023-03-03T03:59:39;19.40;35.10
56172;DHT22;42052;41.634;-0.946;2023-03-03T04:02:25;19.40;35.20
56172;DHT22;42052;41.634;-0.946;2023-03-03T04:05:12;19.40;35.20
56172;DHT22;42052;41.634;-0.946;2023-03-03T04:07:58;19.40;35.30
56172;DHT22;42052;41.634;-0.946;2023-03-03T04:10:44;19.30;35.20
56172;DHT22;42052;41.634;-0.946;2023-03-03T04:13:30;19.30;35.20
56172;DHT22;42052;41.634;-0.946;2023-03-03T04:16:16;19.30;35.40
56172;DHT22;42052;41.634;-0.946;2023-03-03T04:19:03;19.40;35.30
56172;DHT22;42052;41.634;-0.946;2023-03-03T04:21:50;19.40;35.40
56172;DHT22;42052;41.634;-0.946;2023-03-03T04:24:36;19.40;35.30
56172;DHT22;42052;41.634;-0.946;2023-03-03T04:27:22;19.40;35.30
56172;DHT22;42052;41.634;-0.946;2023-03-03T04:30:09;19.30;35.30
56172;DHT22;42052;41.634;-0.946;2023-03-03T04:32:55;19.40;35.50
56172;DHT22;42052;41.634;-0.946;2023-03-03T04:35:41;19.40;35.40
56172;DHT22;42052;41.634;-0.946;2023-03-03T04:38:27;19.30;35.50
56172;DHT22;42052;41.634;-0.946;2023-03-03T04:41:14;19.30;36.20
56172;DHT22;42052;41.634;-0.946;2023-03-03T04:44:01;19.30;35.40
56172;DHT22;42052;41.634;-0.946;2023-03-03T04:46:47;19.30;35.50
56172;DHT22;42052;41.634;-0.946;2023-03-03T04:49:33;19.40;35.60
56172;DHT22;42052;41.634;-0.946;2023-03-03T04:52:19;19.40;35.50
56172;DHT22;42052;41.634;-0.946;2023-03-03T04:55:05;19.40;35.50
56172;DHT22;42052;41.634;-0.946;2023-03-03T04:57:52;19.40;35.40
56172;DHT22;42052;41.634;-0.946;2023-03-03T05:00:38;19.40;35.50
56172;DHT22;42052;41.634;-0.946;2023-03-03T05:03:25;19.40;35.40
56172;DHT22;42052;41.634;-0.946;2023-03-03T05:06:11;19.40;35.40
56172;DHT22;42052;41.634;-0.946;2023-03-03T05:08:58;19.40;35.40
56172;DHT22;42052;41.634;-0.946;2023-03-03T05:11:44;19.40;35.40
56172;DHT22;42052;41.634;-0.946;2023-03-03T05:14:30;19.40;35.40
56172;DHT22;42052;41.634;-0.946;2023-03-03T05:17:17;19.40;35.40
56172;DHT22;42052;41.634;-0.946;2023-03-03T05:20:04;19.40;35.20
56172;DHT22;42052;41.634;-0.946;2023-03-03T05:22:53;19.50;35.10
56172;DHT22;42052;41.634;-0.946;2023-03-03T05:25:40;19.40;35.00
56172;DHT22;42052;41.634;-0.946;2023-03-03T05:28:27;19.40;34.90
56172;DHT22;42052;41.634;-0.946;2023-03-03T05:31:13;19.50;34.90
56172;DHT22;42052;41.634;-0.946;2023-03-03T05:33:59;19.40;34.80
56172;DHT22;42052;41.634;-0.946;2023-03-03T05:36:45;19.40;34.80
56172;DHT22;42052;41.634;-0.946;2023-03-03T05:39:32;19.40;34.70
56172;DHT22;42052;41.634;-0.946;2023-03-03T05:42:18;19.40;34.70
56172;DHT22;42052;41.634;-0.946;2023-03-03T05:45:05;19.40;34.50
56172;DHT22;42052;41.634;-0.946;2023-03-03T05:47:51;19.40;34.70
56172;DHT22;42052;41.634;-0.946;2023-03-03T05:50:38;19.40;34.70
56172;DHT22;42052;41.634;-0.946;2023-03-03T05:53:26;19.40;34.80
56172;DHT22;42052;41.634;-0.946;2023-03-03T05:56:12;19.40;34.70
56172;DHT22;42052;41.634;-0.946;2023-03-03T05:58:58;19.40;34.70
56172;DHT22;42052;41.634;-0.946;2023-03-03T06:01:44;19.40;34.80
56172;DHT22;42052;41.634;-0.946;2023-03-03T06:04:30;19.40;34.60
56172;DHT22;42052;41.634;-0.946;2023-03-03T06:07:16;19.40;34.90
56172;DHT22;42052;41.634;-0.946;2023-03-03T06:10:03;19.40;35.10
56172;DHT22;42052;41.634;-0.946;2023-03-03T06:12:50;19.40;35.20
56172;DHT22;42052;41.634;-0.946;2023-03-03T06:15:37;19.40;35.10
56172;DHT22;42052;41.634;-0.946;2023-03-03T06:18:23;19.40;34.80
56172;DHT22;42052;41.634;-0.946;2023-03-03T06:21:09;19.50;35.00
56172;DHT22;42052;41.634;-0.946;2023-03-03T06:23:55;19.50;34.90
56172;DHT22;42052;41.634;-0.946;2023-03-03T06:26:41;19.50;34.80
56172;DHT22;42052;41.634;-0.946;2023-03-03T06:29:27;19.50;34.70
56172;DHT22;42052;41.634;-0.946;2023-03-03T06:32:14;19.50;34.70
56172;DHT22;42052;41.634;-0.946;2023-03-03T06:35:00;19.50;34.50
56172;DHT22;42052;41.634;-0.946;2023-03-03T06:37:46;19.50;34.40
56172;DHT22;42052;41.634;-0.946;2023-03-03T06:40:35;19.50;34.40
56172;DHT22;42052;41.634;-0.946;2023-03-03T06:43:21;19.50;34.30
56172;DHT22;42052;41.634;-0.946;2023-03-03T06:46:07;19.50;34.30
56172;DHT22;42052;41.634;-0.946;2023-03-03T06:48:53;19.50;34.30
56172;DHT22;42052;41.634;-0.946;2023-03-03T06:51:40;19.50;34.40
56172;DHT22;42052;41.634;-0.946;2023-03-03T06:54:28;19.50;34.40
56172;DHT22;42052;41.634;-0.946;2023-03-03T06:57:28;19.50;34.40
56172;DHT22;42052;41.634;-0.946;2023-03-03T07:03:10;19.50;34.30
56172;DHT22;42052;41.634;-0.946;2023-03-03T07:05:57;19.50;34.60
56172;DHT22;42052;41.634;-0.946;2023-03-03T07:08:43;19.50;34.40
56172;DHT22;42052;41.634;-0.946;2023-03-03T07:11:30;19.50;34.40
56172;DHT22;42052;41.634;-0.946;2023-03-03T07:14:18;19.50;34.50
56172;DHT22;42052;41.634;-0.946;2023-03-03T07:17:18;19.50;34.50
56172;DHT22;42052;41.634;-0.946;2023-03-03T07:20:19;19.50;34.60
56172;DHT22;42052;41.634;-0.946;2023-03-03T07:23:22;19.40;34.50
56172;DHT22;42052;41.634;-0.946;2023-03-03T07:26:14;19.40;34.60
56172;DHT22;42052;41.634;-0.946;2023-03-03T07:32:25;19.40;34.40
56172;DHT22;42052;41.634;-0.946;2023-03-03T07:35:35;19.40;34.40
56172;DHT22;42052;41.634;-0.946;2023-03-03T07:41:17;19.40;34.30
56172;DHT22;42052;41.634;-0.946;2023-03-03T07:44:20;19.40;34.30
56172;DHT22;42052;41.634;-0.946;2023-03-03T07:47:18;19.40;34.30
56172;DHT22;42052;41.634;-0.946;2023-03-03T07:50:23;19.30;34.30
56172;DHT22;42052;41.634;-0.946;2023-03-03T07:53:26;19.30;34.20
56172;DHT22;42052;41.634;-0.946;2023-03-03T07:56:18;19.30;34.30
56172;DHT22;42052;41.634;-0.946;2023-03-03T07:59:20;19.30;34.10
56172;DHT22;42052;41.634;-0.946;2023-03-03T08:05:37;19.30;34.40
56172;DHT22;42052;41.634;-0.946;2023-03-03T08:08:32;19.30;34.30
56172;DHT22;42052;41.634;-0.946;2023-03-03T08:11:21;19.30;34.10
56172;DHT22;42052;41.634;-0.946;2023-03-03T08:14:10;19.20;34.10
56172;DHT22;42052;41.634;-0.946;2023-03-03T08:17:00;19.20;34.20
56172;DHT22;42052;41.634;-0.946;2023-03-03T08:19:48;19.20;34.20
56172;DHT22;42052;41.634;-0.946;2023-03-03T08:22:35;19.20;34.30
56172;DHT22;42052;41.634;-0.946;2023-03-03T08:25:22;19.20;34.20
56172;DHT22;42052;41.634;-0.946;2023-03-03T08:28:09;19.20;34.20
56172;DHT22;42052;41.634;-0.946;2023-03-03T08:30:55;19.20;34.20
56172;DHT22;42052;41.634;-0.946;2023-03-03T08:33:42;19.10;34.20
56172;DHT22;42052;41.634;-0.946;2023-03-03T08:36:28;19.10;34.10
56172;DHT22;42052;41.634;-0.946;2023-03-03T08:39:14;19.10;34.20
56172;DHT22;42052;41.634;-0.946;2023-03-03T08:42:00;19.10;34.20
56172;DHT22;42052;41.634;-0.946;2023-03-03T08:44:46;19.10;34.20
56172;DHT22;42052;41.634;-0.946;2023-03-03T08:47:32;19.10;34.10
56172;DHT22;42052;41.634;-0.946;2023-03-03T08:50:19;19.00;34.10
56172;DHT22;42052;41.634;-0.946;2023-03-03T08:53:05;19.00;34.10
56172;DHT22;42052;41.634;-0.946;2023-03-03T08:55:51;19.00;34.10
56172;DHT22;42052;41.634;-0.946;2023-03-03T08:58:38;19.00;34.00
56172;DHT22;42052;41.634;-0.946;2023-03-03T09:01:25;19.00;34.20
56172;DHT22;42052;41.634;-0.946;2023-03-03T09:04:11;19.00;34.10
56172;DHT22;42052;41.634;-0.946;2023-03-03T09:06:58;19.00;34.10
56172;DHT22;42052;41.634;-0.946;2023-03-03T09:09:44;19.00;34.20
56172;DHT22;42052;41.634;-0.946;2023-03-03T09:12:33;19.00;34.20
56172;DHT22;42052;41.634;-0.946;2023-03-03T09:15:29;19.00;34.10
56172;DHT22;42052;41.634;-0.946;2023-03-03T09:18:21;19.00;34.20
56172;DHT22;42052;41.634;-0.946;2023-03-03T09:21:25;19.00;34.20
56172;DHT22;42052;41.634;-0.946;2023-03-03T09:24:24;19.00;34.20
56172;DHT22;42052;41.634;-0.946;2023-03-03T09:27:29;19.00;34.20
56172;DHT22;42052;41.634;-0.946;2023-03-03T09:33:24;19.00;34.10
56172;DHT22;42052;41.634;-0.946;2023-03-03T09:36:25;19.00;34.10
56172;DHT22;42052;41.634;-0.946;2023-03-03T09:39:30;19.00;34.20
56172;DHT22;42052;41.634;-0.946;2023-03-03T09:42:49;19.00;34.10
56172;DHT22;42052;41.634;-0.946;2023-03-03T10:22:17;19.10;33.70
56172;DHT22;42052;41.634;-0.946;2023-03-03T10:31:45;19.10;33.60
56172;DHT22;42052;41.634;-0.946;2023-03-03T10:35:02;19.20;33.70
56172;DHT22;42052;41.634;-0.946;2023-03-03T11:05:39;19.10;33.40
56172;DHT22;42052;41.634;-0.946;2023-03-03T11:08:32;19.10;33.50
56172;DHT22;42052;41.634;-0.946;2023-03-03T11:33:21;19.10;33.50
56172;DHT22;42052;41.634;-0.946;2023-03-03T11:36:26;19.10;33.50
56172;DHT22;42052;41.634;-0.946;2023-03-03T11:39:19;19.10;33.40
56172;DHT22;42052;41.634;-0.946;2023-03-03T11:45:18;19.00;33.40
56172;DHT22;42052;41.634;-0.946;2023-03-03T11:48:21;19.10;33.50
56172;DHT22;42052;41.634;-0.946;2023-03-03T12:00:32;19.00;33.50
56172;DHT22;42052;41.634;-0.946;2023-03-03T12:12:52;19.00;33.50
56172;DHT22;42052;41.634;-0.946;2023-03-03T12:15:48;19.00;33.50
56172;DHT22;42052;41.634;-0.946;2023-03-03T12:18:44;19.00;33.50
56172;DHT22;42052;41.634;-0.946;2023-03-03T12:21:44;19.00;33.50
56172;DHT22;42052;41.634;-0.946;2023-03-03T12:30:32;19.00;33.50
56172;DHT22;42052;41.634;-0.946;2023-03-03T12:46:10;19.00;33.20
56172;DHT22;42052;41.634;-0.946;2023-03-03T12:49:01;19.00;33.90
56172;DHT22;42052;41.634;-0.946;2023-03-03T13:04:33;19.00;33.20
56172;DHT22;42052;41.634;-0.946;2023-03-03T13:07:36;19.00;33.00
56172;DHT22;42052;41.634;-0.946;2023-03-03T13:16:13;19.00;33.10
56172;DHT22;42052;41.634;-0.946;2023-03-03T13:19:07;19.00;33.10
56172;DHT22;42052;41.634;-0.946;2023-03-03T13:21:55;19.00;33.10
56172;DHT22;42052;41.634;-0.946;2023-03-03T13:24:59;19.00;33.10
56172;DHT22;42052;41.634;-0.946;2023-03-03T13:27:48;19.00;33.00
56172;DHT22;42052;41.634;-0.946;2023-03-03T13:30:39;19.00;33.00
56172;DHT22;42052;41.634;-0.946;2023-03-03T13:33:33;19.00;33.10
56172;DHT22;42052;41.634;-0.946;2023-03-03T13:36:45;19.00;33.10
56172;DHT22;42052;41.634;-0.946;2023-03-03T13:39:44;19.00;33.10
56172;DHT22;42052;41.634;-0.946;2023-03-03T13:42:51;19.00;33.10
56172;DHT22;42052;41.634;-0.946;2023-03-03T14:01:00;19.10;33.30
56172;DHT22;42052;41.634;-0.946;2023-03-03T14:04:13;19.10;33.30
56172;DHT22;42052;41.634;-0.946;2023-03-03T14:10:45;19.10;33.00
56172;DHT22;42052;41.634;-0.946;2023-03-03T14:16:38;19.10;33.10
56172;DHT22;42052;41.634;-0.946;2023-03-03T14:19:41;19.00;33.10
56172;DHT22;42052;41.634;-0.946;2023-03-03T14:22:56;19.10;33.30
56172;DHT22;42052;41.634;-0.946;2023-03-03T14:26:08;19.10;33.30
56172;DHT22;42052;41.634;-0.946;2023-03-03T14:32:21;19.10;33.30
56172;DHT22;42052;41.634;-0.946;2023-03-03T14:35:17;19.10;33.40
56172;DHT22;42052;41.634;-0.946;2023-03-03T14:38:22;19.10;33.40
56172;DHT22;42052;41.634;-0.946;2023-03-03T14:43:59;19.10;33.30
56172;DHT22;42052;41.634;-0.946;2023-03-03T14:50:35;19.10;33.20
56172;DHT22;42052;41.634;-0.946;2023-03-03T14:56:33;19.10;33.30
56172;DHT22;42052;41.634;-0.946;2023-03-03T14:59:22;19.10;33.30
56172;DHT22;42052;41.634;-0.946;2023-03-03T15:05:22;19.10;33.10
56172;DHT22;42052;41.634;-0.946;2023-03-03T15:08:10;19.10;33.30
56172;DHT22;42052;41.634;-0.946;2023-03-03T15:11:32;19.20;33.40
56172;DHT22;42052;41.634;-0.946;2023-03-03T15:14:23;19.20;33.70
56172;DHT22;42052;41.634;-0.946;2023-03-03T15:20:21;19.40;34.20
56172;DHT22;42052;41.634;-0.946;2023-03-03T15:26:10;19.60;33.40
56172;DHT22;42052;41.634;-0.946;2023-03-03T15:35:09;19.80;33.10
56172;DHT22;42052;41.634;-0.946;2023-03-03T15:38:33;19.90;33.00
56172;DHT22;42052;41.634;-0.946;2023-03-03T15:53:37;20.10;32.80
56172;DHT22;42052;41.634;-0.946;2023-03-03T15:56:55;20.20;32.70
56172;DHT22;42052;41.634;-0.946;2023-03-03T15:59:50;20.10;32.80
56172;DHT22;42052;41.634;-0.946;2023-03-03T16:11:38;20.10;33.00
56172;DHT22;42052;41.634;-0.946;2023-03-03T16:26:42;20.10;32.80
56172;DHT22;42052;41.634;-0.946;2023-03-03T16:29:40;20.10;33.00
56172;DHT22;42052;41.634;-0.946;2023-03-03T16:35:29;20.10;33.00
56172;DHT22;42052;41.634;-0.946;2023-03-03T16:38:26;20.00;33.00
56172;DHT22;42052;41.634;-0.946;2023-03-03T16:41:31;20.00;33.00
56172;DHT22;42052;41.634;-0.946;2023-03-03T16:44:25;20.00;33.00
56172;DHT22;42052;41.634;-0.946;2023-03-03T16:56:13;19.90;33.10
56172;DHT22;42052;41.634;-0.946;2023-03-03T17:11:48;19.90;33.30
56172;DHT22;42052;41.634;-0.946;2023-03-03T17:14:56;19.90;33.30
56172;DHT22;42052;41.634;-0.946;2023-03-03T17:26:50;19.90;33.30
56172;DHT22;42052;41.634;-0.946;2023-03-03T17:36:08;19.90;33.30
56172;DHT22;42052;41.634;-0.946;2023-03-03T17:42:04;19.80;33.40
56172;DHT22;42052;41.634;-0.946;2023-03-03T17:47:57;19.80;33.40
56172;DHT22;42052;41.634;-0.946;2023-03-03T17:51:09;19.70;33.40
56172;DHT22;42052;41.634;-0.946;2023-03-03T17:54:16;19.70;33.40
56172;DHT22;42052;41.634;-0.946;2023-03-03T17:57:22;19.60;33.40
56172;DHT22;42052;41.634;-0.946;2023-03-03T18:19:06;19.80;33.40
56172;DHT22;42052;41.634;-0.946;2023-03-03T18:22:10;19.80;33.30
56172;DHT22;42052;41.634;-0.946;2023-03-03T18:25:03;19.90;34.30
56172;DHT22;42052;41.634;-0.946;2023-03-03T18:31:00;20.00;35.70
56172;DHT22;42052;41.634;-0.946;2023-03-03T18:34:06;20.10;36.30
56172;DHT22;42052;41.634;-0.946;2023-03-03T18:37:32;20.10;36.80
56172;DHT22;42052;41.634;-0.946;2023-03-03T18:40:36;20.10;37.00
56172;DHT22;42052;41.634;-0.946;2023-03-03T18:49:48;20.20;38.20
56172;DHT22;42052;41.634;-0.946;2023-03-03T18:52:37;20.20;38.50
56172;DHT22;42052;41.634;-0.946;2023-03-03T18:55:25;20.20;38.50
56172;DHT22;42052;41.634;-0.946;2023-03-03T19:01:12;20.20;38.50
56172;DHT22;42052;41.634;-0.946;2023-03-03T19:07:28;20.20;38.50
56172;DHT22;42052;41.634;-0.946;2023-03-03T19:13:50;20.30;38.70
56172;DHT22;42052;41.634;-0.946;2023-03-03T19:29:04;20.30;39.10
56172;DHT22;42052;41.634;-0.946;2023-03-03T19:31:32;20.30;38.90
56172;DHT22;42052;41.634;-0.946;2023-03-03T19:34:36;20.30;38.80
56172;DHT22;42052;41.634;-0.946;2023-03-03T19:37:58;20.20;38.60
56172;DHT22;42052;41.634;-0.946;2023-03-03T19:44:10;20.20;38.70
56172;DHT22;42052;41.634;-0.946;2023-03-03T19:47:03;20.30;38.80
56172;DHT22;42052;41.634;-0.946;2023-03-03T20:08:32;20.30;38.90
56172;DHT22;42052;41.634;-0.946;2023-03-03T20:14:44;20.20;38.90
56172;DHT22;42052;41.634;-0.946;2023-03-03T20:21:03;20.30;39.20
56172;DHT22;42052;41.634;-0.946;2023-03-03T20:24:28;20.30;39.10
56172;DHT22;42052;41.634;-0.946;2023-03-03T20:27:27;20.30;39.30
56172;DHT22;42052;41.634;-0.946;2023-03-03T20:36:41;20.30;39.50
56172;DHT22;42052;41.634;-0.946;2023-03-03T20:43:12;20.30;40.00
56172;DHT22;42052;41.634;-0.946;2023-03-03T20:46:14;20.30;39.70
56172;DHT22;42052;41.634;-0.946;2023-03-03T20:52:35;20.30;39.80
56172;DHT22;42052;41.634;-0.946;2023-03-03T20:58:48;20.30;40.00
56172;DHT22;42052;41.634;-0.946;2023-03-03T21:01:59;20.30;39.90
56172;DHT22;42052;41.634;-0.946;2023-03-03T21:05:15;20.30;39.90
56172;DHT22;42052;41.634;-0.946;2023-03-03T21:08:04;20.30;39.90
56172;DHT22;42052;41.634;-0.946;2023-03-03T21:10:55;20.30;40.10
56172;DHT22;42052;41.634;-0.946;2023-03-03T21:13:45;20.30;40.00
56172;DHT22;42052;41.634;-0.946;2023-03-03T21:16:33;20.30;40.00
56172;DHT22;42052;41.634;-0.946;2023-03-03T21:19:31;20.30;40.20
56172;DHT22;42052;41.634;-0.946;2023-03-03T21:22:18;20.30;39.90
56172;DHT22;42052;41.634;-0.946;2023-03-03T21:25:04;20.30;40.20
56172;DHT22;42052;41.634;-0.946;2023-03-03T21:27:50;20.30;40.00
56172;DHT22;42052;41.634;-0.946;2023-03-03T21:31:04;20.30;40.00
56172;DHT22;42052;41.634;-0.946;2023-03-03T21:33:55;20.30;40.00
56172;DHT22;42052;41.634;-0.946;2023-03-03T21:39:39;20.30;39.80
56172;DHT22;42052;41.634;-0.946;2023-03-03T21:42:39;20.30;40.00
56172;DHT22;42052;41.634;-0.946;2023-03-03T21:45:26;20.30;39.90
56172;DHT22;42052;41.634;-0.946;2023-03-03T21:48:12;20.30;40.10
56172;DHT22;42052;41.634;-0.946;2023-03-03T21:50:59;20.20;40.00
56172;DHT22;42052;41.634;-0.946;2023-03-03T21:53:45;20.20;40.00
56172;DHT22;42052;41.634;-0.946;2023-03-03T21:56:31;20.30;40.00
56172;DHT22;42052;41.634;-0.946;2023-03-03T21:59:19;20.20;40.00
56172;DHT22;42052;41.634;-0.946;2023-03-03T22:02:06;20.20;40.00
56172;DHT22;42052;41.634;-0.946;2023-03-03T22:04:52;20.20;40.10
56172;DHT22;42052;41.634;-0.946;2023-03-03T22:07:38;20.20;39.90
56172;DHT22;42052;41.634;-0.946;2023-03-03T22:10:25;20.20;39.90
56172;DHT22;42052;41.634;-0.946;2023-03-03T22:13:11;20.20;39.90
56172;DHT22;42052;41.634;-0.946;2023-03-03T22:15:59;20.20;40.00
56172;DHT22;42052;41.634;-0.946;2023-03-03T22:18:45;20.20;40.00
56172;DHT22;42052;41.634;-0.946;2023-03-03T22:21:31;20.20;39.90
56172;DHT22;42052;41.634;-0.946;2023-03-03T22:24:17;20.20;40.00
56172;DHT22;42052;41.634;-0.946;2023-03-03T22:27:03;20.20;40.00
56172;DHT22;42052;41.634;-0.946;2023-03-03T22:29:49;20.20;39.90
56172;DHT22;42052;41.634;-0.946;2023-03-03T22:32:36;20.20;40.00
56172;DHT22;42052;41.634;-0.946;2023-03-03T22:35:22;20.20;40.10
56172;DHT22;42052;41.634;-0.946;2023-03-03T22:38:08;20.20;39.90
56172;DHT22;42052;41.634;-0.946;2023-03-03T22:40:54;20.20;39.80
56172;DHT22;42052;41.634;-0.946;2023-03-03T22:43:40;20.20;39.90
56172;DHT22;42052;41.634;-0.946;2023-03-03T22:46:26;20.20;39.80
56172;DHT22;42052;41.634;-0.946;2023-03-03T22:49:13;20.20;39.80
56172;DHT22;42052;41.634;-0.946;2023-03-03T22:51:59;20.20;39.80
56172;DHT22;42052;41.634;-0.946;2023-03-03T22:54:47;20.20;39.80
56172;DHT22;42052;41.634;-0.946;2023-03-03T22:57:33;20.20;39.80
56172;DHT22;42052;41.634;-0.946;2023-03-03T23:00:19;20.20;39.70
56172;DHT22;42052;41.634;-0.946;2023-03-03T23:03:08;20.20;39.60
56172;DHT22;42052;41.634;-0.946;2023-03-03T23:05:54;20.20;39.70
56172;DHT22;42052;41.634;-0.946;2023-03-03T23:08:41;20.20;39.60
56172;DHT22;42052;41.634;-0.946;2023-03-03T23:11:27;20.20;39.50
56172;DHT22;42052;41.634;-0.946;2023-03-03T23:14:13;20.20;39.50
56172;DHT22;42052;41.634;-0.946;2023-03-03T23:16:59;20.20;39.40
56172;DHT22;42052;41.634;-0.946;2023-03-03T23:19:45;20.20;39.40
56172;DHT22;42052;41.634;-0.946;2023-03-03T23:22:33;20.10;39.40
56172;DHT22;42052;41.634;-0.946;2023-03-03T23:25:20;20.10;39.30
56172;DHT22;42052;41.634;-0.946;2023-03-03T23:28:07;20.10;39.40
56172;DHT22;42052;41.634;-0.946;2023-03-03T23:30:54;20.10;39.30
56172;DHT22;42052;41.634;-0.946;2023-03-03T23:33:40;20.10;39.30
56172;DHT22;42052;41.634;-0.946;2023-03-03T23:36:26;20.10;39.30
56172;DHT22;42052;41.634;-0.946;2023-03-03T23:39:12;20.00;39.30
56172;DHT22;42052;41.634;-0.946;2023-03-03T23:41:58;20.00;39.30
56172;DHT22;42052;41.634;-0.946;2023-03-03T23:44:44;20.00;39.30
56172;DHT22;42052;41.634;-0.946;2023-03-03T23:47:30;20.00;40.00
56172;DHT22;42052;41.634;-0.946;2023-03-03T23:50:17;20.00;39.30
56172;DHT22;42052;41.634;-0.946;2023-03-03T23:53:04;20.00;39.30
56172;DHT22;42052;41.634;-0.946;2023-03-03T23:55:50;19.90;39.10
56172;DHT22;42052;41.634;-0.946;2023-03-03T23:58:36;19.90;39.10
